HAF212 LGSA-LGSA
Flight info
| Callsign | HAF212 |
|---|---|
| Flight time | 0h 25m |
| Altitude | 2500 |
| Route | BAVES LGIR BAVES |
| Aircraft | CL41/M-GPS/C |
Departure
| Time | 2026-05-04 16:14 |
|---|---|
| Airport | Chania International Airport (LGSA) |
Arrival
| Time | 2026-05-04 16:40 |
|---|---|
| Airport | Chania International Airport (LGSA) |
| Time | Latitude | Longitude | Altitude | Speed | Heading |
|---|---|---|---|---|---|
| 2026-05-04 16:03 | 35.53781 | 24.14334 | 487 ft | 0 kts | 350° |
| 2026-05-04 16:09 | 35.53779 | 24.14322 | 483 ft | 5 kts | 220° |
| 2026-05-04 16:10 | 35.53595 | 24.14374 | 492 ft | 19 kts | 161° |
| 2026-05-04 16:11 | 35.53293 | 24.15200 | 492 ft | 35 kts | 113° |
| 2026-05-04 16:11 | 35.53187 | 24.15520 | 489 ft | 45 kts | 112° |
| 2026-05-04 16:12 | 35.53011 | 24.16020 | 493 ft | 22 kts | 112° |
| 2026-05-04 16:12 | 35.52814 | 24.16226 | 491 ft | 7 kts | 226° |
| 2026-05-04 16:13 | 35.52804 | 24.16129 | 489 ft | 2 kts | 289° |
| 2026-05-04 16:13 | 35.52916 | 24.15770 | 492 ft | 72 kts | 289° |
| 2026-05-04 16:14 | 35.52988 | 24.14362 | 834 ft | 109 kts | 203° |
| 2026-05-04 16:14 | 35.51687 | 24.15572 | 1327 ft | 141 kts | 121° |
| 2026-05-04 16:15 | 35.50211 | 24.18578 | 2281 ft | 140 kts | 117° |
| 2026-05-04 16:16 | 35.49283 | 24.20616 | 2594 ft | 136 kts | 116° |
| 2026-05-04 16:16 | 35.47952 | 24.23788 | 2811 ft | 142 kts | 115° |
| 2026-05-04 16:17 | 35.47089 | 24.25922 | 2985 ft | 140 kts | 113° |
| 2026-05-04 16:18 | 35.46102 | 24.29404 | 3010 ft | 147 kts | 103° |
| 2026-05-04 16:18 | 35.45742 | 24.30569 | 3051 ft | 148 kts | 115° |
| 2026-05-04 16:19 | 35.44253 | 24.33932 | 3195 ft | 149 kts | 114° |
| 2026-05-04 16:19 | 35.43385 | 24.36237 | 3229 ft | 152 kts | 114° |
| 2026-05-04 16:20 | 35.41919 | 24.39748 | 3201 ft | 155 kts | 118° |
| 2026-05-04 16:20 | 35.40818 | 24.41999 | 3250 ft | 153 kts | 122° |
| 2026-05-04 16:21 | 35.39329 | 24.45478 | 3230 ft | 155 kts | 101° |
| 2026-05-04 16:22 | 35.38981 | 24.48065 | 3269 ft | 152 kts | 91° |
| 2026-05-04 16:22 | 35.38907 | 24.49018 | 3293 ft | 150 kts | 89° |
| 2026-05-04 16:23 | 35.38783 | 24.52879 | 3301 ft | 148 kts | 79° |
| 2026-05-04 16:24 | 35.39056 | 24.57924 | 3346 ft | 150 kts | 86° |
| 2026-05-04 16:25 | 35.39326 | 24.60444 | 3369 ft | 146 kts | 75° |
| 2026-05-04 16:26 | 35.40567 | 24.64981 | 3127 ft | 148 kts | 17° |
| 2026-05-04 16:26 | 35.41588 | 24.62580 | 3117 ft | 126 kts | 281° |
| 2026-05-04 16:27 | 35.41983 | 24.60487 | 3130 ft | 127 kts | 282° |
| 2026-05-04 16:28 | 35.42652 | 24.57319 | 3171 ft | 125 kts | 291° |
| 2026-05-04 16:28 | 35.42774 | 24.56901 | 3188 ft | 125 kts | 292° |
| 2026-05-04 16:29 | 35.43576 | 24.53270 | 2964 ft | 135 kts | 286° |
| 2026-05-04 16:30 | 35.44275 | 24.50011 | 2895 ft | 123 kts | 292° |
| 2026-05-04 16:31 | 35.45177 | 24.48137 | 2781 ft | 128 kts | 302° |
| 2026-05-04 16:31 | 35.46288 | 24.45635 | 2760 ft | 122 kts | 293° |
| 2026-05-04 16:32 | 35.46544 | 24.42449 | 2645 ft | 126 kts | 277° |
| 2026-05-04 16:33 | 35.46938 | 24.40393 | 2635 ft | 127 kts | 284° |
| 2026-05-04 16:33 | 35.47280 | 24.38271 | 2582 ft | 124 kts | 282° |
| 2026-05-04 16:34 | 35.47604 | 24.36212 | 2507 ft | 125 kts | 278° |
| 2026-05-04 16:34 | 35.47639 | 24.35112 | 2351 ft | 130 kts | 276° |
| 2026-05-04 16:35 | 35.48038 | 24.32074 | 2180 ft | 106 kts | 282° |
| 2026-05-04 16:35 | 35.49136 | 24.29912 | 2096 ft | 105 kts | 318° |
| 2026-05-04 16:36 | 35.49681 | 24.29338 | 2130 ft | 103 kts | 311° |
| 2026-05-04 16:36 | 35.50082 | 24.27717 | 1930 ft | 102 kts | 278° |
| 2026-05-04 16:37 | 35.50249 | 24.26037 | 1703 ft | 96 kts | 281° |
| 2026-05-04 16:37 | 35.50370 | 24.25228 | 1503 ft | 99 kts | 284° |
| 2026-05-04 16:37 | 35.50766 | 24.23619 | 1281 ft | 100 kts | 284° |
| 2026-05-04 16:38 | 35.51114 | 24.21997 | 1373 ft | 98 kts | 287° |
| 2026-05-04 16:39 | 35.51729 | 24.19532 | 1115 ft | 100 kts | 288° |
| 2026-05-04 16:39 | 35.52252 | 24.17889 | 643 ft | 105 kts | 285° |
| 2026-05-04 16:40 | 35.52718 | 24.16409 | 490 ft | 59 kts | 294° |
| 2026-05-04 16:40 | 35.52968 | 24.15628 | 488 ft | 42 kts | 292° |
| 2026-05-04 16:41 | 35.53153 | 24.15141 | 487 ft | 23 kts | 331° |
| 2026-05-04 16:41 | 35.53444 | 24.14721 | 493 ft | 30 kts | 289° |
| 2026-05-04 16:42 | 35.53652 | 24.14376 | 495 ft | 14 kts | 50° |
| 2026-05-04 16:43 | 35.53643 | 24.14485 | 495 ft | 0 kts | 108° |